Time;durP1;ratioP1;P1;durP2;ratioP2;P2;SDS_P1;SDS_P2;PMS_P1;PMS_P2;Temp;Humidity;BMP_temperature;BMP_pressure;BME280_temperature;BME280_humidity;BME280_pressure;Samples;Min_cycle;Max_cycle;Signal;HPM_P1;HPM_P2
2024/01/19 00:00:39;;;;;;;23.40;11.07;;;;;;;28.51;62.77;101070.66;5040467;28;67047;-40
2024/01/19 00:03:09;;;;;;;25.75;10.30;;;;;;;28.48;63.42;101077.28;5042540;28;69475;-39
2024/01/19 00:05:40;;;;;;;24.63;11.30;;;;;;;28.52;63.24;101075.84;5039812;28;65995;-39
2024/01/19 00:08:11;;;;;;;20.92;10.95;;;;;;;28.63;63.62;101093.34;5040068;28;69431;-40
2024/01/19 00:10:42;;;;;;;23.50;11.35;;;;;;;28.57;63.71;101086.03;5039978;28;66061;-38
2024/01/19 00:13:12;;;;;;;19.48;11.25;;;;;;;28.59;64.27;101083.16;5037088;28;70098;-39
2024/01/19 00:15:43;;;;;;;30.58;11.60;;;;;;;28.76;64.12;101106.06;5040928;28;66903;-41
2024/01/19 00:18:13;;;;;;;25.77;11.95;;;;;;;28.80;64.78;101107.31;5040649;28;69908;-39
2024/01/19 00:20:44;;;;;;;24.00;11.77;;;;;;;28.70;64.95;101093.38;5045634;28;66484;-40
2024/01/19 00:23:15;;;;;;;23.98;12.05;;;;;;;28.41;64.83;101049.38;5031660;28;71310;-39
2024/01/19 00:25:46;;;;;;;31.77;14.82;;;;;;;29.02;71.29;101126.13;5041077;28;66008;-40
2024/01/19 00:28:16;;;;;;;44.45;14.27;;;;;;;29.20;75.08;101134.53;5041793;28;69408;-40
2024/01/19 00:30:47;;;;;;;30.73;14.07;;;;;;;29.25;75.03;101132.03;5052686;28;64959;-40
2024/01/19 00:33:17;;;;;;;33.90;14.93;;;;;;;29.29;70.66;101138.72;5047339;28;69654;-42
2024/01/19 00:35:48;;;;;;;31.95;15.25;;;;;;;29.37;74.70;101146.63;5049307;28;67677;-43
2024/01/19 00:38:20;;;;;;;37.63;16.80;;;;;;;29.40;74.59;101140.81;5051574;28;70201;-41
2024/01/19 00:40:50;;;;;;;40.70;18.25;;;;;;;29.30;75.33;101129.56;5051601;28;66015;-42
2024/01/19 00:43:21;;;;;;;37.97;19.02;;;;;;;29.42;75.29;101145.19;5038903;28;69860;-42
2024/01/19 00:45:52;;;;;;;42.25;18.65;;;;;;;29.53;69.24;101158.94;5058961;28;64848;-41
2024/01/19 00:48:23;;;;;;;30.85;15.20;;;;;;;29.40;68.06;101167.84;5059232;28;70483;-40
2024/01/19 00:50:53;;;;;;;30.10;16.42;;;;;;;29.26;68.45;101149.94;5060317;28;66813;-39
2024/01/19 00:53:24;;;;;;;28.40;15.88;;;;;;;29.42;67.70;101169.50;5060703;28;68884;-39
2024/01/19 00:55:55;;;;;;;28.58;15.75;;;;;;;29.42;68.01;101180.31;5042074;28;66329;-39
2024/01/19 00:58:26;;;;;;;29.52;16.38;;;;;;;29.44;68.31;101180.94;5036781;28;70780;-39
2024/01/19 01:00:57;;;;;;;25.85;15.75;;;;;;;29.45;67.57;101186.16;5037930;28;66580;-40
2024/01/19 01:03:29;;;;;;;33.05;15.50;;;;;;;29.47;67.56;101194.06;5037718;28;69908;-38
2024/01/19 01:05:59;;;;;;;25.63;15.82;;;;;;;29.49;67.77;101200.91;5041808;28;66646;-39
2024/01/19 01:08:33;;;;;;;24.23;15.52;;;;;;;29.53;67.81;101191.38;5044915;28;70255;-39
2024/01/19 01:11:05;;;;;;;27.23;16.33;;;;;;;29.51;67.70;101190.75;5038993;28;65087;-39
2024/01/19 01:13:35;;;;;;;29.60;14.82;;;;;;;29.53;67.85;101195.94;5054546;28;69994;-39
2024/01/19 01:16:06;;;;;;;28.13;15.25;;;;;;;29.59;68.00;101208.66;5051294;28;66006;-38
2024/01/19 01:18:36;;;;;;;32.47;15.70;;;;;;;29.60;67.87;101208.44;5051621;28;69466;-39
2024/01/19 01:21:08;;;;;;;30.88;16.35;;;;;;;29.62;67.99;101217.19;5042395;28;65031;-39
2024/01/19 01:23:39;;;;;;;25.73;15.73;;;;;;;29.58;67.82;101213.19;5051573;28;69710;-40
2024/01/19 01:26:09;;;;;;;25.75;16.00;;;;;;;29.64;67.65;101217.00;5067064;28;65426;-39
2024/01/19 01:28:40;;;;;;;24.63;15.90;;;;;;;29.67;68.31;101226.56;5051220;28;69387;-39
2024/01/19 01:31:10;;;;;;;32.03;16.70;;;;;;;29.60;68.13;101211.13;5039656;28;66679;-39
2024/01/19 01:33:41;;;;;;;29.00;17.02;;;;;;;29.67;68.07;101221.16;5049148;28;70627;-40
2024/01/19 01:36:11;;;;;;;26.65;16.83;;;;;;;29.71;68.19;101227.84;5054945;28;65908;-38
2024/01/19 01:38:42;;;;;;;29.88;17.15;;;;;;;29.71;68.15;101225.97;5047152;28;70419;-39
2024/01/19 01:41:12;;;;;;;33.83;17.08;;;;;;;29.70;68.01;101227.03;5048590;28;66760;-39
2024/01/19 01:43:43;;;;;;;33.30;17.85;;;;;;;29.69;68.63;101225.34;5044103;28;69347;-39
2024/01/19 01:46:13;;;;;;;24.75;17.05;;;;;;;29.76;67.94;101231.59;5060073;28;66513;-39
2024/01/19 01:48:44;;;;;;;30.38;17.67;;;;;;;29.77;68.60;101233.25;5058705;28;69160;-39
2024/01/19 01:51:15;;;;;;;28.10;16.98;;;;;;;29.77;68.08;101232.44;5047901;28;67973;-41
2024/01/19 01:53:45;;;;;;;25.73;16.17;;;;;;;29.81;68.28;101239.09;5056289;28;69331;-41
2024/01/19 01:56:17;;;;;;;23.67;15.70;;;;;;;29.81;68.03;101245.34;5059562;28;66604;-41
2024/01/19 01:58:48;;;;;;;23.17;15.73;;;;;;;29.79;68.21;101236.59;5042549;28;69407;-40
2024/01/19 02:01:18;;;;;;;27.38;16.50;;;;;;;29.84;68.12;101242.22;5054023;28;65152;-40
2024/01/19 02:03:50;;;;;;;24.75;16.25;;;;;;;29.88;68.04;101244.53;5042343;28;69836;-41
2024/01/19 02:06:21;;;;;;;24.10;16.60;;;;;;;29.87;68.31;101240.16;5043002;28;66271;-41
2024/01/19 02:08:52;;;;;;;22.77;16.40;;;;;;;29.88;67.93;101239.94;5036712;28;69989;-40
2024/01/19 02:11:23;;;;;;;22.00;15.32;;;;;;;29.91;68.08;101246.81;5042856;28;66569;-39
2024/01/19 02:13:53;;;;;;;23.95;16.45;;;;;;;29.93;68.42;101242.03;5057374;28;70238;-40
2024/01/19 02:16:24;;;;;;;24.67;16.65;;;;;;;29.93;68.31;101231.22;5055599;28;65708;-41
2024/01/19 02:18:54;;;;;;;26.27;16.90;;;;;;;29.86;67.76;101224.97;5058359;28;70686;-40
2024/01/19 02:21:25;;;;;;;27.17;17.45;;;;;;;29.95;68.05;101231.81;5063594;28;66725;-41
2024/01/19 02:24:04;;;;;;;26.27;16.45;;;;;;;29.20;68.62;101115.63;5069657;28;69677;-40
2024/01/19 02:26:35;;;;;;;25.25;16.05;;;;;;;29.94;68.19;101230.16;5050163;28;65533;-40
2024/01/19 02:29:06;;;;;;;25.33;16.63;;;;;;;29.98;68.32;101244.97;5045009;28;70054;-40
2024/01/19 02:31:36;;;;;;;25.45;17.00;;;;;;;30.02;68.24;101252.44;5049851;28;67043;-40
2024/01/19 02:34:07;;;;;;;24.75;17.42;;;;;;;30.04;67.72;101252.25;5042083;28;69540;-40
2024/01/19 02:36:38;;;;;;;25.77;17.50;;;;;;;29.98;67.80;101239.56;5057818;28;66183;-40
2024/01/19 02:39:09;;;;;;;24.15;17.63;;;;;;;29.93;67.80;101220.41;5055341;28;70260;-40
2024/01/19 02:41:40;;;;;;;29.08;18.23;;;;;;;29.81;67.82;101207.50;5049768;28;66029;-40
2024/01/19 02:44:12;;;;;;;22.60;16.70;;;;;;;30.09;68.31;101246.22;5040530;28;69749;-41
2024/01/19 02:46:42;;;;;;;26.20;17.90;;;;;;;30.11;68.34;101254.97;5035668;28;66964;-40
2024/01/19 02:49:12;;;;;;;21.58;16.50;;;;;;;30.13;68.18;101253.72;5035619;28;69793;-40
2024/01/19 02:51:43;;;;;;;24.05;16.20;;;;;;;30.11;67.94;101239.56;5041473;28;66384;-39
2024/01/19 02:54:13;;;;;;;23.08;15.82;;;;;;;30.12;67.85;101235.00;5031755;28;70645;-40
2024/01/19 02:56:44;;;;;;;19.65;16.63;;;;;;;30.14;67.83;101227.50;5061214;28;66578;-40
2024/01/19 02:59:14;;;;;;;26.13;17.70;;;;;;;30.22;67.91;101230.84;5074908;28;69079;-41
2024/01/19 03:01:45;;;;;;;27.63;17.15;;;;;;;30.22;67.79;101238.97;5052307;28;65845;-44
2024/01/19 03:04:16;;;;;;;23.95;17.08;;;;;;;30.26;68.19;101226.72;5039009;28;69381;-42
2024/01/19 03:06:48;;;;;;;26.90;18.08;;;;;;;30.28;68.14;101230.03;5054820;28;65668;-40
2024/01/19 03:09:19;;;;;;;23.58;16.38;;;;;;;30.30;68.10;101226.28;5047231;28;69379;-40
2024/01/19 03:11:50;;;;;;;23.20;16.67;;;;;;;30.27;68.31;101217.53;5045941;28;67100;-39
2024/01/19 03:14:21;;;;;;;21.90;16.55;;;;;;;30.33;67.79;101221.28;5048720;28;71237;-41
2024/01/19 03:16:52;;;;;;;21.92;17.05;;;;;;;30.35;67.94;101213.78;5065999;28;66585;-40
2024/01/19 03:19:22;;;;;;;22.10;16.85;;;;;;;30.37;68.21;101217.13;5044475;28;69753;-40
2024/01/19 03:21:53;;;;;;;20.40;16.38;;;;;;;30.38;68.14;101201.72;5064949;28;67021;-40
2024/01/19 03:24:26;;;;;;;22.20;16.63;;;;;;;30.42;68.10;101208.38;5053202;28;44086;-40
2024/01/19 03:26:56;;;;;;;22.70;17.63;;;;;;;30.45;68.24;101210.66;5065047;28;66552;-40
2024/01/19 03:29:27;;;;;;;22.83;16.83;;;;;;;30.45;68.02;101199.81;5054112;28;70585;-40
2024/01/19 03:31:57;;;;;;;27.67;16.80;;;;;;;30.41;67.73;101183.19;5043946;28;66207;-42
2024/01/19 03:34:28;;;;;;;20.13;16.35;;;;;;;30.50;67.92;101187.31;5040510;28;70445;-40
2024/01/19 03:37:03;;;;;;;21.73;15.85;;;;;;;30.52;67.98;101189.84;5032030;28;67170;-41
2024/01/19 03:39:34;;;;;;;23.63;16.38;;;;;;;30.55;68.00;101189.41;5049115;28;70392;-40
2024/01/19 03:42:04;;;;;;;21.95;16.48;;;;;;;30.52;67.79;101170.06;5044671;28;65958;-40
2024/01/19 03:44:35;;;;;;;23.85;16.40;;;;;;;30.58;67.73;101175.44;5041873;28;70034;-39
2024/01/19 03:47:05;;;;;;;22.52;16.77;;;;;;;30.61;67.77;101174.19;5045289;28;66066;-39
2024/01/19 03:49:36;;;;;;;23.00;16.02;;;;;;;30.62;67.94;101160.47;5030398;28;70346;-40
2024/01/19 03:52:08;;;;;;;25.20;16.95;;;;;;;29.92;67.80;101040.22;5054633;28;66895;-40
2024/01/19 03:54:39;;;;;;;21.25;17.02;;;;;;;30.65;67.68;101157.31;5055892;28;70173;-40
2024/01/19 03:57:10;;;;;;;20.50;16.88;;;;;;;30.66;67.98;101156.25;5072479;28;65154;-39
2024/01/19 03:59:41;;;;;;;22.57;17.10;;;;;;;30.69;67.39;101145.00;5057040;28;69319;-39
2024/01/19 04:02:12;;;;;;;23.15;16.23;;;;;;;30.74;67.68;101147.09;5059856;28;66449;-39
2024/01/19 04:04:43;;;;;;;25.02;16.67;;;;;;;30.67;67.79;101130.88;5056379;28;70185;-40
2024/01/19 04:07:14;;;;;;;19.20;15.85;;;;;;;30.75;67.42;101132.50;5074683;28;65966;-40
2024/01/19 04:09:45;;;;;;;25.13;17.13;;;;;;;30.79;67.73;101135.63;5054221;28;69779;-41
2024/01/19 04:12:18;;;;;;;23.95;17.20;;;;;;;30.81;67.67;101133.53;5040263;28;66648;-40
2024/01/19 04:14:49;;;;;;;21.42;16.50;;;;;;;30.84;67.63;101135.81;5062971;28;70497;-40
2024/01/19 04:17:20;;;;;;;22.57;17.13;;;;;;;30.86;67.89;101139.16;5026740;28;66115;-39
2024/01/19 04:19:51;;;;;;;24.05;16.95;;;;;;;30.87;67.40;101132.69;5052786;28;69819;-39
2024/01/19 04:22:21;;;;;;;21.65;16.67;;;;;;;30.89;67.40;101122.47;5035186;28;65796;-40
2024/01/19 04:24:53;;;;;;;21.23;17.15;;;;;;;30.93;67.56;101118.31;5023035;28;70030;-39
2024/01/19 04:27:23;;;;;;;21.17;16.23;;;;;;;30.93;67.50;101118.31;5034633;28;65600;-39
2024/01/19 04:29:54;;;;;;;20.17;16.70;;;;;;;30.93;67.55;101104.75;5041802;28;70303;-44
2024/01/19 04:32:24;;;;;;;23.50;17.58;;;;;;;30.99;67.19;101112.03;5036857;28;66242;-39
2024/01/19 04:34:55;;;;;;;21.25;17.48;;;;;;;31.01;67.19;101104.50;5031339;28;69781;-39
2024/01/19 04:37:26;;;;;;;20.23;16.55;;;;;;;31.03;67.58;101096.16;5039658;28;66128;-41
2024/01/19 04:39:56;;;;;;;19.38;16.42;;;;;;;31.06;67.55;101090.31;5056368;28;70029;-40
2024/01/19 04:42:27;;;;;;;22.10;17.15;;;;;;;31.07;67.62;101090.09;5044152;28;65673;-38
2024/01/19 04:44:57;;;;;;;20.33;16.90;;;;;;;31.08;67.35;101077.38;5034379;28;70045;-39
2024/01/19 04:47:30;;;;;;;22.42;17.50;;;;;;;31.07;67.12;101065.72;5045517;28;66152;-40
2024/01/19 04:50:01;;;;;;;19.63;17.60;;;;;;;31.10;66.98;101062.56;5027064;28;70771;-39
2024/01/19 04:52:32;;;;;;;25.60;17.50;;;;;;;31.13;67.44;101059.41;5040939;28;66507;-39
2024/01/19 04:55:02;;;;;;;21.58;17.25;;;;;;;31.10;67.33;101038.19;5033691;28;70107;-39
2024/01/19 04:57:33;;;;;;;23.52;17.00;;;;;;;31.15;67.12;101046.50;5049547;28;66286;-38
2024/01/19 05:00:05;;;;;;;19.80;16.33;;;;;;;30.82;67.39;100980.84;5042819;28;69952;-39
2024/01/19 05:02:35;;;;;;;;;;;;;;;30.93;68.60;101042.47;5031794;28;66950;-40
2024/01/19 05:05:06;;;;;;;19.23;16.30;;;;;;;31.08;67.29;101018.59;5053545;28;70535;-39
2024/01/19 05:07:36;;;;;;;24.08;17.45;;;;;;;31.08;67.30;100996.09;5052313;28;66639;-39
2024/01/19 05:10:07;;;;;;;23.77;17.77;;;;;;;31.24;67.32;101016.41;5046268;28;69979;-40
2024/01/19 05:12:39;;;;;;;24.55;18.02;;;;;;;31.26;67.42;101011.59;5059949;28;66635;-39
2024/01/19 05:15:10;;;;;;;20.55;18.45;;;;;;;31.27;66.91;101000.53;5058838;28;70466;-40
2024/01/19 05:17:40;;;;;;;20.27;18.03;;;;;;;31.28;67.29;100994.06;5044173;28;67074;-40
2024/01/19 05:20:11;;;;;;;25.98;18.08;;;;;;;31.30;67.05;100985.72;5040123;28;69455;-39
2024/01/19 05:22:42;;;;;;;24.93;18.47;;;;;;;31.30;66.59;100966.75;5073302;28;65803;-40
2024/01/19 05:25:17;;;;;;;29.30;19.20;;;;;;;31.07;66.96;100927.53;5069372;28;70145;-40
2024/01/19 05:27:53;;;;;;;25.58;18.70;;;;;;;31.36;67.03;100966.72;5055074;28;65976;-40
2024/01/19 05:30:24;;;;;;;27.92;19.20;;;;;;;31.38;66.82;100967.31;5059173;28;71023;-40
2024/01/19 05:32:55;;;;;;;22.70;19.10;;;;;;;31.37;67.03;100953.97;5059189;28;65433;-40
2024/01/19 05:35:26;;;;;;;23.45;18.08;;;;;;;31.40;66.81;100948.16;5060321;28;70312;-40
2024/01/19 05:37:57;;;;;;;22.83;18.67;;;;;;;31.36;66.83;100933.34;5045390;28;66109;-40
2024/01/19 05:40:27;;;;;;;22.45;18.55;;;;;;;31.41;66.94;100930.81;5060003;28;69389;-41
2024/01/19 05:42:58;;;;;;;23.17;19.10;;;;;;;31.43;66.63;100923.28;5049547;28;66411;-39
2024/01/19 05:45:28;;;;;;;23.30;19.50;;;;;;;31.45;66.84;100910.31;5056257;28;70251;-40
2024/01/19 05:47:59;;;;;;;25.33;20.08;;;;;;;31.45;66.91;100898.66;5051504;28;66287;-40
2024/01/19 05:50:29;;;;;;;21.92;19.45;;;;;;;31.48;66.96;100892.78;5069615;28;70624;-40
2024/01/19 05:52:59;;;;;;;22.75;19.42;;;;;;;31.49;66.38;100889.88;5032996;28;66756;-40
2024/01/19 05:55:30;;;;;;;25.05;19.48;;;;;;;31.50;66.55;100880.66;5056657;28;69312;-40
2024/01/19 05:58:03;;;;;;;28.80;20.33;;;;;;;31.40;66.67;100847.84;5058141;28;66328;-39
2024/01/19 06:00:34;;;;;;;29.48;20.80;;;;;;;31.55;66.56;100851.00;5044462;28;70286;-42
2024/01/19 06:03:04;;;;;;;27.98;20.42;;;;;;;31.56;66.53;100857.25;5058491;28;66637;-40
2024/01/19 06:05:38;;;;;;;31.00;20.20;;;;;;;31.57;66.48;100843.47;5057513;28;70533;-40
2024/01/19 06:08:08;;;;;;;27.10;20.55;;;;;;;31.61;66.20;100839.25;5056151;28;65499;-40
2024/01/19 06:10:39;;;;;;;29.48;21.05;;;;;;;31.63;66.32;100830.06;5048391;28;70005;-42
2024/01/19 06:13:13;;;;;;;24.63;20.35;;;;;;;31.64;66.40;100829.00;5051114;28;68072;-39
2024/01/19 06:15:43;;;;;;;25.92;20.23;;;;;;;31.66;66.61;100818.78;5040471;28;69740;-40
2024/01/19 06:18:14;;;;;;;27.85;20.25;;;;;;;31.48;66.19;100787.91;5057434;28;66333;-40
2024/01/19 06:20:44;;;;;;;24.60;20.15;;;;;;;31.70;65.96;100806.41;5045137;28;69653;-41
2024/01/19 06:23:15;;;;;;;22.67;19.67;;;;;;;31.66;66.10;100791.66;5043805;28;66683;-41
2024/01/19 06:25:46;;;;;;;30.65;21.13;;;;;;;31.75;65.81;100793.00;5025087;28;70604;-39
2024/01/19 06:28:16;;;;;;;29.85;22.50;;;;;;;31.77;66.29;100796.31;5053143;28;66396;-39
2024/01/19 06:30:47;;;;;;;28.02;21.90;;;;;;;31.78;65.67;100784.41;5053730;28;70397;-42
2024/01/19 06:33:18;;;;;;;26.37;20.77;;;;;;;31.72;65.66;100774.47;5051147;28;65424;-41
2024/01/19 06:35:48;;;;;;;27.58;21.05;;;;;;;31.83;66.35;100774.50;5039736;28;69501;-40
2024/01/19 06:38:20;;;;;;;27.17;20.95;;;;;;;31.85;65.74;100763.44;5038916;28;66310;-40
2024/01/19 06:40:51;;;;;;;24.90;20.20;;;;;;;31.76;65.69;100743.09;5038255;28;70121;-40
2024/01/19 06:43:22;;;;;;;26.20;21.00;;;;;;;31.88;65.91;100757.56;5045116;28;66689;-40
2024/01/19 06:45:52;;;;;;;23.17;20.48;;;;;;;31.90;65.65;100743.75;5064620;28;69944;-40
2024/01/19 06:48:23;;;;;;;24.60;20.48;;;;;;;31.92;65.76;100747.91;5060589;28;65797;-40
2024/01/19 06:50:53;;;;;;;24.33;20.85;;;;;;;31.95;65.46;100731.19;5042929;28;70185;-41
2024/01/19 06:53:24;;;;;;;25.95;21.80;;;;;;;31.77;65.73;100698.66;5042861;28;65729;-40
2024/01/19 06:55:54;;;;;;;23.83;20.67;;;;;;;31.98;65.53;100728.03;5041179;28;70479;-39
2024/01/19 06:58:36;;;;;;;23.65;20.70;;;;;;;32.00;65.33;100723.19;5043243;28;65816;-39
2024/01/19 07:01:07;;;;;;;25.52;19.98;;;;;;;31.99;65.53;100720.72;5055533;28;71010;-40
2024/01/19 07:03:38;;;;;;;27.58;21.90;;;;;;;31.98;65.19;100709.03;5042880;28;65908;-40
2024/01/19 07:06:09;;;;;;;23.23;20.80;;;;;;;32.05;65.29;100704.31;5060603;28;70114;-40
2024/01/19 07:08:39;;;;;;;26.42;21.33;;;;;;;32.08;65.14;100699.50;5061770;28;66644;-40
2024/01/19 07:11:11;;;;;;;26.08;21.08;;;;;;;32.09;65.22;100695.72;5029008;28;69543;-40
2024/01/19 07:13:42;;;;;;;26.45;20.60;;;;;;;32.11;65.31;100690.88;5055521;28;66647;-41
2024/01/19 07:16:13;;;;;;;21.73;19.30;;;;;;;31.85;65.21;100646.81;5036108;28;70226;-41
2024/01/19 07:18:43;;;;;;;21.80;19.48;;;;;;;32.13;65.04;100684.16;5043051;28;65662;-40
2024/01/19 07:21:15;;;;;;;26.42;20.42;;;;;;;32.16;64.97;100674.72;5042213;28;70125;-40
2024/01/19 07:23:45;;;;;;;24.73;19.10;;;;;;;32.20;64.92;100684.03;5054793;28;65868;-41
2024/01/19 07:26:19;;;;;;;21.55;19.33;;;;;;;32.22;64.64;100674.63;5034543;28;69723;-40
2024/01/19 07:28:50;;;;;;;23.10;20.38;;;;;;;32.25;64.91;100670.59;5035929;28;65952;-40
2024/01/19 07:31:21;;;;;;;23.60;19.77;;;;;;;32.27;64.85;100668.50;5041522;28;70463;-41
2024/01/19 07:33:51;;;;;;;21.10;18.90;;;;;;;32.21;64.70;100647.72;5042060;28;66711;-41
2024/01/19 07:36:22;;;;;;;22.48;19.92;;;;;;;32.33;64.75;100672.97;5038312;28;69934;-40
2024/01/19 07:38:54;;;;;;;28.75;20.08;;;;;;;32.34;64.93;100662.94;5038771;28;66030;-40
2024/01/19 07:41:25;;;;;;;20.33;18.27;;;;;;;32.31;64.70;100641.69;5043907;28;70714;-40
2024/01/19 07:43:55;;;;;;;21.63;19.42;;;;;;;32.39;64.62;100647.59;5055651;28;66494;-40
2024/01/19 07:46:26;;;;;;;22.55;18.50;;;;;;;32.41;64.54;100648.19;5041591;28;70000;-40
2024/01/19 07:48:56;;;;;;;22.52;18.70;;;;;;;32.42;64.63;100652.53;5041863;28;66511;-41
2024/01/19 07:51:27;;;;;;;20.17;17.85;;;;;;;32.45;64.42;100637.69;5041763;28;69976;-40
2024/01/19 07:53:58;;;;;;;22.08;18.98;;;;;;;32.45;64.52;100643.94;5043022;28;66923;-41
2024/01/19 07:56:28;;;;;;;19.60;17.58;;;;;;;32.48;64.35;100643.50;5020617;28;70148;-39
2024/01/19 07:58:59;;;;;;;20.05;17.98;;;;;;;32.52;64.27;100637.59;5028516;28;66418;-39
2024/01/19 08:01:30;;;;;;;19.25;17.13;;;;;;;32.52;64.44;100633.00;5042643;28;70550;-41
2024/01/19 08:04:01;;;;;;;22.17;18.53;;;;;;;32.49;64.01;100623.44;5024441;28;67213;-40
2024/01/19 08:06:31;;;;;;;19.90;17.33;;;;;;;32.58;63.83;100625.78;5056273;28;70190;-39
2024/01/19 08:09:02;;;;;;;21.95;18.70;;;;;;;32.61;63.96;100619.88;5041478;28;65850;-50
2024/01/19 08:11:34;;;;;;;19.27;17.23;;;;;;;32.61;63.86;100626.13;5042787;28;70198;-40
2024/01/19 08:14:06;;;;;;;20.08;18.05;;;;;;;32.66;63.71;100617.28;5040792;28;66830;-41
2024/01/19 08:16:36;;;;;;;20.70;17.67;;;;;;;32.68;63.84;100615.13;5041953;28;70333;-41
2024/01/19 08:19:07;;;;;;;18.55;16.70;;;;;;;32.70;63.51;100611.09;5042334;28;65358;-40
2024/01/19 08:21:43;;;;;;;18.90;17.00;;;;;;;32.73;63.15;100615.25;5027762;28;70199;-41
2024/01/19 08:24:14;;;;;;;19.92;17.30;;;;;;;32.75;63.50;100615.81;5042388;28;66065;-40
2024/01/19 08:26:44;;;;;;;17.90;16.30;;;;;;;32.78;63.69;100604.47;5055228;28;70145;-42
2024/01/19 08:29:15;;;;;;;18.20;16.40;;;;;;;32.59;63.67;100570.41;5049178;28;66889;-41
2024/01/19 08:31:51;;;;;;;17.85;16.15;;;;;;;32.85;63.03;100613.34;5043194;28;70555;-41
2024/01/19 08:34:25;;;;;;;17.27;15.43;;;;;;;32.85;63.81;100605.19;5059170;28;65279;-40
2024/01/19 08:36:56;;;;;;;17.88;16.10;;;;;;;32.90;63.51;100608.00;5044155;28;70155;-41
2024/01/19 08:39:27;;;;;;;16.50;15.13;;;;;;;32.92;63.30;100605.84;5047580;28;65894;-41
2024/01/19 08:41:59;;;;;;;17.08;15.40;;;;;;;32.94;63.11;100603.72;5060848;28;69346;-41
2024/01/19 08:44:30;;;;;;;18.67;15.93;;;;;;;32.99;63.46;100607.59;5054433;28;66539;-43
2024/01/19 08:47:02;;;;;;;16.13;14.52;;;;;;;33.01;63.19;100606.34;5042256;28;69951;-40
2024/01/19 08:49:33;;;;;;;16.60;14.90;;;;;;;33.04;63.16;100613.19;5036507;28;65871;-43
2024/01/19 08:52:05;;;;;;;17.33;15.02;;;;;;;33.07;63.01;100607.25;5063190;28;69603;-41
2024/01/19 08:54:35;;;;;;;16.17;14.48;;;;;;;33.10;63.06;100614.94;5061341;28;66303;-40
2024/01/19 08:57:06;;;;;;;16.58;14.85;;;;;;;33.12;62.73;100610.91;5045050;28;70262;-40
2024/01/19 08:59:37;;;;;;;16.63;13.25;;;;;;;33.13;62.84;100612.56;5041164;28;65921;-40
2024/01/19 09:02:08;;;;;;;15.67;14.27;;;;;;;33.14;62.94;100610.66;5040944;28;69713;-40
2024/01/19 09:04:38;;;;;;;14.52;13.35;;;;;;;33.22;62.76;100621.16;5038614;28;66364;-40
2024/01/19 09:07:09;;;;;;;15.57;14.05;;;;;;;33.23;62.56;100611.91;5053368;28;69846;-40
2024/01/19 09:09:40;;;;;;;15.50;13.82;;;;;;;33.07;62.66;100588.22;5029570;28;66025;-41
2024/01/19 09:12:10;;;;;;;15.90;14.32;;;;;;;33.27;62.87;100618.53;5059331;28;69995;-41
2024/01/19 09:14:42;;;;;;;15.00;13.63;;;;;;;33.30;62.54;100633.53;5050454;28;66571;-40
2024/01/19 09:17:12;;;;;;;17.48;15.65;;;;;;;33.04;62.32;100610.47;5037522;28;70023;-40
2024/01/19 09:19:43;;;;;;;28.35;16.35;;;;;;;32.97;62.48;100613.28;5036275;28;66367;-40
2024/01/19 09:22:13;;;;;;;17.13;15.30;;;;;;;33.04;62.89;100629.47;5038908;28;70361;-40
2024/01/19 09:24:44;;;;;;;18.40;15.15;;;;;;;33.00;62.73;100628.31;5038471;28;66606;-41
2024/01/19 09:27:15;;;;;;;;;;;;;;;32.86;63.01;100636.72;5040938;28;70521;-40
2024/01/19 09:29:47;;;;;;;20.45;15.70;;;;;;;32.98;62.78;100638.56;5060649;28;66379;-40
2024/01/19 09:32:18;;;;;;;21.85;15.63;;;;;;;32.98;62.89;100635.84;5044625;28;69529;-40
2024/01/19 09:34:48;;;;;;;23.35;16.45;;;;;;;32.98;62.84;100646.72;5059888;28;66693;-41
2024/01/19 09:37:19;;;;;;;26.80;17.15;;;;;;;32.97;62.76;100650.50;5040980;28;70137;-40
2024/01/19 09:39:49;;;;;;;20.55;17.00;;;;;;;32.98;63.05;100657.59;5040297;28;65951;-39
2024/01/19 09:42:33;;;;;;;24.40;17.52;;;;;;;32.90;63.31;100656.06;5050056;28;69528;-41
2024/01/19 09:45:05;;;;;;;24.38;16.55;;;;;;;32.85;63.58;100626.91;5058270;28;66410;-40
2024/01/19 09:48:03;;;;;;;18.25;16.00;;;;;;;33.18;63.23;100668.06;5029582;28;70622;-40
2024/01/19 09:50:36;;;;;;;19.23;15.75;;;;;;;33.27;62.97;100678.34;5055731;28;66533;-41
2024/01/19 09:53:26;;;;;;;25.13;15.48;;;;;;;33.31;62.66;100679.50;5056229;28;68867;-40
2024/01/19 09:55:57;;;;;;;22.45;15.88;;;;;;;33.35;62.59;100680.69;5034402;28;66758;-41
2024/01/19 09:58:27;;;;;;;21.15;15.73;;;;;;;33.34;62.89;100679.00;5045132;28;69450;-41
2024/01/19 10:01:00;;;;;;;18.27;14.90;;;;;;;33.42;63.44;100694.13;5045882;28;65515;-40
2024/01/19 10:03:32;;;;;;;20.63;15.85;;;;;;;33.48;62.97;100695.03;5068956;28;70735;-40
2024/01/19 10:06:03;;;;;;;16.15;14.52;;;;;;;33.52;62.86;100707.09;5040632;28;66527;-41
2024/01/19 10:08:36;;;;;;;15.27;13.80;;;;;;;33.53;62.88;100706.06;5046564;28;69676;-41
2024/01/19 10:11:08;;;;;;;14.70;13.20;;;;;;;33.53;62.69;100716.94;5039490;28;65916;-41
2024/01/19 10:13:39;;;;;;;16.13;12.57;;;;;;;33.39;63.24;100708.19;5042316;28;69504;-42
2024/01/19 10:16:10;;;;;;;16.73;11.33;;;;;;;33.24;63.62;100716.88;5041965;28;66811;-39
2024/01/19 10:18:41;;;;;;;12.40;11.15;;;;;;;32.86;63.87;100672.03;5039343;28;69524;-40
2024/01/19 10:21:13;;;;;;;12.98;10.40;;;;;;;33.13;64.40;100725.91;5051028;28;66467;-40
2024/01/19 10:23:44;;;;;;;;;;;;;;;32.99;64.75;100729.88;5047672;28;70178;-39
2024/01/19 10:26:14;;;;;;;12.73;9.32;;;;;;;33.01;64.92;100734.03;5063032;28;67014;-39
2024/01/19 10:28:45;;;;;;;17.00;9.50;;;;;;;33.00;64.89;100739.72;5060007;28;70112;-41
2024/01/19 10:31:22;;;;;;;10.23;8.47;;;;;;;32.84;64.92;100714.91;5051591;28;66208;-39
2024/01/19 10:33:57;;;;;;;12.88;8.38;;;;;;;32.84;64.81;100733.91;5057721;28;70145;-39
2024/01/19 10:36:39;;;;;;;9.05;8.10;;;;;;;32.91;65.17;100750.94;5047378;28;65597;-39
2024/01/19 10:39:29;;;;;;;7.93;7.23;;;;;;;32.57;65.37;100701.00;5042564;28;69443;-38
2024/01/19 10:42:07;;;;;;;7.85;7.07;;;;;;;32.86;65.54;100767.13;5041563;28;66561;-39
2024/01/19 10:44:38;;;;;;;7.50;6.18;;;;;;;32.87;65.54;100763.31;5040643;28;70203;-41
2024/01/19 10:47:09;;;;;;;12.85;6.60;;;;;;;32.84;65.29;100766.50;5024544;28;66108;-38
2024/01/19 10:49:40;;;;;;;10.35;6.10;;;;;;;32.82;65.47;100765.94;5041878;28;70191;-39
2024/01/19 10:52:10;;;;;;;10.13;6.25;;;;;;;32.83;65.57;100769.47;5043282;28;65287;-39
2024/01/19 10:54:49;;;;;;;11.10;6.03;;;;;;;32.70;65.36;100746.09;5036572;28;70237;-38
2024/01/19 10:57:23;;;;;;;5.90;5.03;;;;;;;32.79;65.49;100774.56;5039288;28;66200;-38
2024/01/19 10:59:54;;;;;;;7.63;5.72;;;;;;;32.80;65.42;100778.94;5042470;28;70730;-42
2024/01/19 11:02:26;;;;;;;10.25;5.28;;;;;;;32.77;65.74;100787.56;5042720;28;66858;-39
2024/01/19 11:04:56;;;;;;;;;;;;;;;32.66;66.03;100791.09;5041962;28;70451;-39
2024/01/19 11:07:26;;;;;;;5.32;4.90;;;;;;;32.51;65.68;100755.41;5028869;28;66219;-39
2024/01/19 11:09:57;;;;;;;8.63;5.53;;;;;;;32.44;65.68;100745.44;5058264;28;70189;-38
2024/01/19 11:12:29;;;;;;;6.00;4.93;;;;;;;32.60;65.61;100776.56;5053056;28;65925;-40
2024/01/19 11:15:01;;;;;;;12.07;5.63;;;;;;;32.64;65.29;100793.19;5037215;28;69630;-40
2024/01/19 11:17:33;;;;;;;15.15;5.78;;;;;;;32.67;65.56;100814.47;5049203;28;66621;-39
2024/01/19 11:20:04;;;;;;;8.85;5.15;;;;;;;32.62;65.48;100817.88;5034487;28;69960;-41
2024/01/19 11:22:35;;;;;;;13.33;6.10;;;;;;;32.62;65.51;100819.75;5033194;28;65363;-39
2024/01/19 11:25:18;;;;;;;7.85;5.88;;;;;;;32.60;65.34;100824.63;5047649;28;70039;-39
2024/01/19 11:27:59;;;;;;;8.75;5.03;;;;;;;32.40;65.85;100809.44;5046811;28;65439;-39
2024/01/19 11:31:16;;;;;;;8.77;5.88;;;;;;;32.50;65.58;100838.75;5048016;28;70690;-39